マナウス の空港の天気 - METARとTAF

エドワルド ゴメス国際空港(マナウス) ( SBEG / MAO ) - ブラジル アマゾナス州マナウス
飛行場実況気象(Metar)
観測時間08/14 01:00 AMT (08/14 05:00 UTC)
風向・風速静穏 0m/s
視程10km以上
天気現象
なし
気温26℃
湿度89%
気圧1009hPa
METARSBEG 140500Z 00000KT CAVOK 26/24 Q1009
過去の天気等 Google飛行場航空写真 Wunderground天気予報

過去48時間のMETAR

飛行場予報(TAF)
発表時間: 8/13 17:00 AMT (8/13 21:00 UTC)
予報対象時間: 13日20時 AMT ~ 14日20時 AMT
風向・風速北西 2m/s
視程10km以上
少しの雲 雲底高度 610m
少しの塔状積雲 雲底高度 910m
13日21時 AMT ~ 13日22時 AMT に徐々に
視程10km以上
なし
14日3時 AMT から 確率 30% で
全天の4割程度の雲 雲底高度 120m
14日6時 AMT ~ 14日8時 AMT に徐々に
風向・風速東北東 4m/s
全天の4割程度の雲 雲底高度 610m
14日15時 AMT ~ 14日17時 AMT に徐々に
視程10km以上
なし
TAF SBEG 132100Z 1400/1424 32003KT 9999 FEW020 FEW030TCU TN23/1409Z TX34/1417Z
BECMG 1401/1402 CAVOK
PROB30 1407/1410 SCT004
BECMG 1410/1412 06007KT SCT020
BECMG 1419/1421 CAVOK RMK PEP